sensor_id;sensor_type;location;lat;lon;timestamp;temperature;humidity
21306;DHT22;10812;51.838;5.838;2022-07-01T00:00:50;15.10;99.90
21306;DHT22;10812;51.838;5.838;2022-07-01T00:03:18;15.10;99.90
21306;DHT22;10812;51.838;5.838;2022-07-01T00:05:47;15.10;99.90
21306;DHT22;10812;51.838;5.838;2022-07-01T00:08:15;15.00;99.90
21306;DHT22;10812;51.838;5.838;2022-07-01T00:10:43;15.00;99.90
21306;DHT22;10812;51.838;5.838;2022-07-01T00:13:13;15.00;99.90
21306;DHT22;10812;51.838;5.838;2022-07-01T00:15:41;15.00;99.90
21306;DHT22;10812;51.838;5.838;2022-07-01T00:18:09;15.00;99.90
21306;DHT22;10812;51.838;5.838;2022-07-01T00:20:37;14.90;99.90
21306;DHT22;10812;51.838;5.838;2022-07-01T00:23:06;14.90;99.90
21306;DHT22;10812;51.838;5.838;2022-07-01T00:25:34;14.90;99.90
21306;DHT22;10812;51.838;5.838;2022-07-01T00:28:02;14.90;99.90
21306;DHT22;10812;51.838;5.838;2022-07-01T00:30:32;14.90;99.90
21306;DHT22;10812;51.838;5.838;2022-07-01T00:33:00;14.90;99.90
21306;DHT22;10812;51.838;5.838;2022-07-01T00:35:28;14.90;99.90
21306;DHT22;10812;51.838;5.838;2022-07-01T00:37:57;14.90;99.90
21306;DHT22;10812;51.838;5.838;2022-07-01T00:40:25;14.90;99.90
21306;DHT22;10812;51.838;5.838;2022-07-01T00:42:54;14.90;99.90
21306;DHT22;10812;51.838;5.838;2022-07-01T00:45:22;14.90;99.90
21306;DHT22;10812;51.838;5.838;2022-07-01T00:47:51;14.80;99.90
21306;DHT22;10812;51.838;5.838;2022-07-01T00:50:20;14.70;99.90
21306;DHT22;10812;51.838;5.838;2022-07-01T00:52:48;14.70;99.90
21306;DHT22;10812;51.838;5.838;2022-07-01T00:55:16;14.70;99.90
21306;DHT22;10812;51.838;5.838;2022-07-01T00:57:44;14.70;99.90
21306;DHT22;10812;51.838;5.838;2022-07-01T01:00:14;14.60;99.90
21306;DHT22;10812;51.838;5.838;2022-07-01T01:02:43;14.60;99.90
21306;DHT22;10812;51.838;5.838;2022-07-01T01:05:12;14.70;99.90
21306;DHT22;10812;51.838;5.838;2022-07-01T01:07:41;14.70;99.90
21306;DHT22;10812;51.838;5.838;2022-07-01T01:10:09;14.60;99.90
21306;DHT22;10812;51.838;5.838;2022-07-01T01:12:38;14.70;99.90
21306;DHT22;10812;51.838;5.838;2022-07-01T01:15:07;14.70;99.90
21306;DHT22;10812;51.838;5.838;2022-07-01T01:17:35;14.70;99.90
21306;DHT22;10812;51.838;5.838;2022-07-01T01:20:05;14.70;99.90
21306;DHT22;10812;51.838;5.838;2022-07-01T01:22:34;14.70;99.90
21306;DHT22;10812;51.838;5.838;2022-07-01T01:25:03;14.80;99.90
21306;DHT22;10812;51.838;5.838;2022-07-01T01:27:31;14.80;99.90
21306;DHT22;10812;51.838;5.838;2022-07-01T01:29:59;14.80;99.90
21306;DHT22;10812;51.838;5.838;2022-07-01T01:32:27;14.70;99.90
21306;DHT22;10812;51.838;5.838;2022-07-01T01:34:55;14.80;99.90
21306;DHT22;10812;51.838;5.838;2022-07-01T01:37:23;14.70;99.90
21306;DHT22;10812;51.838;5.838;2022-07-01T01:39:53;14.70;99.90
21306;DHT22;10812;51.838;5.838;2022-07-01T01:42:21;14.70;99.90
21306;DHT22;10812;51.838;5.838;2022-07-01T01:44:49;14.70;99.90
21306;DHT22;10812;51.838;5.838;2022-07-01T01:47:17;14.70;99.90
21306;DHT22;10812;51.838;5.838;2022-07-01T01:49:45;14.70;99.90
21306;DHT22;10812;51.838;5.838;2022-07-01T01:52:13;14.70;99.90
21306;DHT22;10812;51.838;5.838;2022-07-01T01:54:41;14.70;99.90
21306;DHT22;10812;51.838;5.838;2022-07-01T01:57:11;14.70;99.90
21306;DHT22;10812;51.838;5.838;2022-07-01T01:59:39;14.70;99.90
21306;DHT22;10812;51.838;5.838;2022-07-01T02:02:07;14.70;99.90
21306;DHT22;10812;51.838;5.838;2022-07-01T02:04:35;14.70;99.90
21306;DHT22;10812;51.838;5.838;2022-07-01T02:07:04;14.60;99.90
21306;DHT22;10812;51.838;5.838;2022-07-01T02:09:32;14.60;99.90
21306;DHT22;10812;51.838;5.838;2022-07-01T02:12:00;14.50;99.90
21306;DHT22;10812;51.838;5.838;2022-07-01T02:14:30;14.50;99.90
21306;DHT22;10812;51.838;5.838;2022-07-01T02:16:58;14.50;99.90
21306;DHT22;10812;51.838;5.838;2022-07-01T02:19:26;14.40;99.90
21306;DHT22;10812;51.838;5.838;2022-07-01T02:21:54;14.50;99.90
21306;DHT22;10812;51.838;5.838;2022-07-01T02:24:22;14.40;99.90
21306;DHT22;10812;51.838;5.838;2022-07-01T02:26:50;14.40;99.90
21306;DHT22;10812;51.838;5.838;2022-07-01T02:29:18;14.40;99.90
21306;DHT22;10812;51.838;5.838;2022-07-01T02:31:48;14.40;99.90
21306;DHT22;10812;51.838;5.838;2022-07-01T02:34:16;14.40;99.90
21306;DHT22;10812;51.838;5.838;2022-07-01T02:36:44;14.30;99.90
21306;DHT22;10812;51.838;5.838;2022-07-01T02:39:12;14.30;99.90
21306;DHT22;10812;51.838;5.838;2022-07-01T02:41:40;14.20;99.90
21306;DHT22;10812;51.838;5.838;2022-07-01T02:44:28;14.20;99.90
21306;DHT22;10812;51.838;5.838;2022-07-01T02:46:57;14.20;99.90
21306;DHT22;10812;51.838;5.838;2022-07-01T02:49:25;14.20;99.90
21306;DHT22;10812;51.838;5.838;2022-07-01T02:51:53;14.20;99.90
21306;DHT22;10812;51.838;5.838;2022-07-01T02:54:21;14.30;99.90
21306;DHT22;10812;51.838;5.838;2022-07-01T02:56:49;14.20;99.90
21306;DHT22;10812;51.838;5.838;2022-07-01T02:59:17;14.20;99.90
21306;DHT22;10812;51.838;5.838;2022-07-01T03:07:08;14.30;99.90
21306;DHT22;10812;51.838;5.838;2022-07-01T03:09:36;14.30;99.90
21306;DHT22;10812;51.838;5.838;2022-07-01T03:12:07;14.20;99.90
21306;DHT22;10812;51.838;5.838;2022-07-01T03:14:49;14.20;99.90
21306;DHT22;10812;51.838;5.838;2022-07-01T03:17:18;14.20;99.90
21306;DHT22;10812;51.838;5.838;2022-07-01T03:19:46;14.30;99.90
21306;DHT22;10812;51.838;5.838;2022-07-01T03:22:16;14.20;99.90
21306;DHT22;10812;51.838;5.838;2022-07-01T03:24:44;14.20;99.90
21306;DHT22;10812;51.838;5.838;2022-07-01T03:27:12;14.20;99.90
21306;DHT22;10812;51.838;5.838;2022-07-01T03:29:40;14.20;99.90
21306;DHT22;10812;51.838;5.838;2022-07-01T03:32:09;14.20;99.90
21306;DHT22;10812;51.838;5.838;2022-07-01T03:34:38;14.20;99.90
21306;DHT22;10812;51.838;5.838;2022-07-01T03:37:08;14.20;99.90
21306;DHT22;10812;51.838;5.838;2022-07-01T03:39:38;14.10;99.90
21306;DHT22;10812;51.838;5.838;2022-07-01T03:42:08;14.10;99.90
21306;DHT22;10812;51.838;5.838;2022-07-01T03:44:37;13.90;99.90
21306;DHT22;10812;51.838;5.838;2022-07-01T03:47:07;13.90;99.90
21306;DHT22;10812;51.838;5.838;2022-07-01T03:49:35;13.80;99.90
21306;DHT22;10812;51.838;5.838;2022-07-01T03:52:04;13.80;99.90
21306;DHT22;10812;51.838;5.838;2022-07-01T03:54:32;13.80;99.90
21306;DHT22;10812;51.838;5.838;2022-07-01T03:57:02;13.90;99.90
21306;DHT22;10812;51.838;5.838;2022-07-01T03:59:34;13.90;99.90
21306;DHT22;10812;51.838;5.838;2022-07-01T04:02:03;14.00;99.90
21306;DHT22;10812;51.838;5.838;2022-07-01T04:04:32;14.00;99.90
21306;DHT22;10812;51.838;5.838;2022-07-01T04:07:04;14.10;99.90
21306;DHT22;10812;51.838;5.838;2022-07-01T04:09:33;14.20;99.90
21306;DHT22;10812;51.838;5.838;2022-07-01T04:12:04;14.10;99.90
21306;DHT22;10812;51.838;5.838;2022-07-01T04:14:35;14.20;99.90
21306;DHT22;10812;51.838;5.838;2022-07-01T04:17:03;14.20;99.90
21306;DHT22;10812;51.838;5.838;2022-07-01T04:19:32;14.20;99.90
21306;DHT22;10812;51.838;5.838;2022-07-01T04:29:34;14.30;99.90
21306;DHT22;10812;51.838;5.838;2022-07-01T04:32:02;14.30;99.90
21306;DHT22;10812;51.838;5.838;2022-07-01T04:38:21;14.30;99.90
21306;DHT22;10812;51.838;5.838;2022-07-01T04:40:49;14.30;99.90
21306;DHT22;10812;51.838;5.838;2022-07-01T04:43:31;14.40;99.90
21306;DHT22;10812;51.838;5.838;2022-07-01T04:46:01;14.30;99.90
21306;DHT22;10812;51.838;5.838;2022-07-01T04:48:29;14.30;99.90
21306;DHT22;10812;51.838;5.838;2022-07-01T04:50:57;14.40;99.90
21306;DHT22;10812;51.838;5.838;2022-07-01T04:53:30;14.40;99.90
21306;DHT22;10812;51.838;5.838;2022-07-01T04:55:58;14.40;99.90
21306;DHT22;10812;51.838;5.838;2022-07-01T04:58:27;14.30;99.90
21306;DHT22;10812;51.838;5.838;2022-07-01T05:00:56;14.40;99.90
21306;DHT22;10812;51.838;5.838;2022-07-01T05:03:26;14.30;99.90
21306;DHT22;10812;51.838;5.838;2022-07-01T05:05:55;14.40;99.90
21306;DHT22;10812;51.838;5.838;2022-07-01T05:08:25;14.40;99.90
21306;DHT22;10812;51.838;5.838;2022-07-01T05:10:54;14.40;99.90
21306;DHT22;10812;51.838;5.838;2022-07-01T05:13:25;14.50;99.90
21306;DHT22;10812;51.838;5.838;2022-07-01T05:15:53;14.50;99.90
21306;DHT22;10812;51.838;5.838;2022-07-01T05:18:23;14.50;99.90
21306;DHT22;10812;51.838;5.838;2022-07-01T05:21:09;14.60;99.90
21306;DHT22;10812;51.838;5.838;2022-07-01T05:23:55;14.70;99.90
21306;DHT22;10812;51.838;5.838;2022-07-01T05:26:24;14.80;99.90
21306;DHT22;10812;51.838;5.838;2022-07-01T05:28:54;14.80;99.90
21306;DHT22;10812;51.838;5.838;2022-07-01T05:31:22;14.80;99.90
21306;DHT22;10812;51.838;5.838;2022-07-01T05:33:51;14.90;99.90
21306;DHT22;10812;51.838;5.838;2022-07-01T05:36:20;15.00;99.90
21306;DHT22;10812;51.838;5.838;2022-07-01T05:38:48;15.10;99.90
21306;DHT22;10812;51.838;5.838;2022-07-01T05:41:16;15.30;99.90
21306;DHT22;10812;51.838;5.838;2022-07-01T05:43:45;15.30;99.90
21306;DHT22;10812;51.838;5.838;2022-07-01T05:46:14;15.30;99.90
21306;DHT22;10812;51.838;5.838;2022-07-01T05:48:42;15.30;99.90
21306;DHT22;10812;51.838;5.838;2022-07-01T05:51:10;15.20;99.90
21306;DHT22;10812;51.838;5.838;2022-07-01T05:53:39;15.30;99.90
21306;DHT22;10812;51.838;5.838;2022-07-01T05:56:09;15.30;99.90
21306;DHT22;10812;51.838;5.838;2022-07-01T05:58:37;15.30;99.90
21306;DHT22;10812;51.838;5.838;2022-07-01T06:01:06;15.40;99.90
21306;DHT22;10812;51.838;5.838;2022-07-01T06:03:36;15.50;99.90
21306;DHT22;10812;51.838;5.838;2022-07-01T06:06:04;15.60;99.90
21306;DHT22;10812;51.838;5.838;2022-07-01T06:08:32;15.70;99.90
21306;DHT22;10812;51.838;5.838;2022-07-01T06:11:02;15.70;99.90
21306;DHT22;10812;51.838;5.838;2022-07-01T06:13:31;15.70;99.90
21306;DHT22;10812;51.838;5.838;2022-07-01T06:15:59;15.80;99.90
21306;DHT22;10812;51.838;5.838;2022-07-01T06:18:27;15.90;99.90
21306;DHT22;10812;51.838;5.838;2022-07-01T06:24:58;16.10;99.90
21306;DHT22;10812;51.838;5.838;2022-07-01T06:27:28;16.90;99.90
21306;DHT22;10812;51.838;5.838;2022-07-01T06:37:38;18.00;99.90
21306;DHT22;10812;51.838;5.838;2022-07-01T06:40:12;17.60;99.90
21306;DHT22;10812;51.838;5.838;2022-07-01T06:42:41;17.30;99.90
21306;DHT22;10812;51.838;5.838;2022-07-01T06:45:10;17.00;99.90
21306;DHT22;10812;51.838;5.838;2022-07-01T06:47:39;17.00;99.90
21306;DHT22;10812;51.838;5.838;2022-07-01T06:50:07;16.90;99.90
21306;DHT22;10812;51.838;5.838;2022-07-01T06:52:35;17.60;99.90
21306;DHT22;10812;51.838;5.838;2022-07-01T06:55:04;18.30;99.90
21306;DHT22;10812;51.838;5.838;2022-07-01T06:57:32;18.50;99.90
21306;DHT22;10812;51.838;5.838;2022-07-01T07:00:02;18.40;99.90
21306;DHT22;10812;51.838;5.838;2022-07-01T07:02:31;18.80;99.90
21306;DHT22;10812;51.838;5.838;2022-07-01T07:04:59;19.70;99.90
21306;DHT22;10812;51.838;5.838;2022-07-01T07:07:28;20.50;99.90
21306;DHT22;10812;51.838;5.838;2022-07-01T07:09:56;21.50;99.90
21306;DHT22;10812;51.838;5.838;2022-07-01T07:12:25;21.90;99.90
21306;DHT22;10812;51.838;5.838;2022-07-01T07:14:53;21.40;99.90
21306;DHT22;10812;51.838;5.838;2022-07-01T07:17:22;20.80;99.90
21306;DHT22;10812;51.838;5.838;2022-07-01T07:19:50;21.30;99.90
21306;DHT22;10812;51.838;5.838;2022-07-01T07:22:20;22.10;99.90
21306;DHT22;10812;51.838;5.838;2022-07-01T07:24:48;22.10;99.90
21306;DHT22;10812;51.838;5.838;2022-07-01T07:27:16;23.30;99.90
21306;DHT22;10812;51.838;5.838;2022-07-01T07:29:44;24.20;99.90
21306;DHT22;10812;51.838;5.838;2022-07-01T07:32:13;24.70;99.90
21306;DHT22;10812;51.838;5.838;2022-07-01T07:34:42;24.80;99.90
21306;DHT22;10812;51.838;5.838;2022-07-01T07:37:10;25.00;99.10
21306;DHT22;10812;51.838;5.838;2022-07-01T07:39:38;24.70;98.20
21306;DHT22;10812;51.838;5.838;2022-07-01T07:42:06;24.10;99.30
21306;DHT22;10812;51.838;5.838;2022-07-01T07:44:34;23.60;99.90
21306;DHT22;10812;51.838;5.838;2022-07-01T07:47:03;24.50;99.30
21306;DHT22;10812;51.838;5.838;2022-07-01T07:49:31;24.30;99.20
21306;DHT22;10812;51.838;5.838;2022-07-01T07:52:05;23.70;99.80
21306;DHT22;10812;51.838;5.838;2022-07-01T07:54:33;22.40;99.90
21306;DHT22;10812;51.838;5.838;2022-07-01T07:57:02;21.80;99.90
21306;DHT22;10812;51.838;5.838;2022-07-01T07:59:31;21.90;99.90
21306;DHT22;10812;51.838;5.838;2022-07-01T08:01:59;22.30;99.90
21306;DHT22;10812;51.838;5.838;2022-07-01T08:04:27;22.60;99.90
21306;DHT22;10812;51.838;5.838;2022-07-01T08:06:55;23.50;99.90
21306;DHT22;10812;51.838;5.838;2022-07-01T08:09:25;24.40;99.90
21306;DHT22;10812;51.838;5.838;2022-07-01T08:11:53;25.10;97.90
21306;DHT22;10812;51.838;5.838;2022-07-01T08:14:21;25.80;97.10
21306;DHT22;10812;51.838;5.838;2022-07-01T08:16:50;26.40;95.20
21306;DHT22;10812;51.838;5.838;2022-07-01T08:19:18;25.50;95.20
21306;DHT22;10812;51.838;5.838;2022-07-01T08:21:46;25.20;94.80
21306;DHT22;10812;51.838;5.838;2022-07-01T08:24:15;24.20;96.90
21306;DHT22;10812;51.838;5.838;2022-07-01T08:26:44;23.90;97.70
21306;DHT22;10812;51.838;5.838;2022-07-01T08:29:12;24.60;97.20
21306;DHT22;10812;51.838;5.838;2022-07-01T08:31:40;25.20;95.90
21306;DHT22;10812;51.838;5.838;2022-07-01T08:34:09;25.60;95.20
21306;DHT22;10812;51.838;5.838;2022-07-01T08:36:37;25.90;94.50
21306;DHT22;10812;51.838;5.838;2022-07-01T08:39:05;26.40;94.20
21306;DHT22;10812;51.838;5.838;2022-07-01T08:41:33;26.60;93.10
21306;DHT22;10812;51.838;5.838;2022-07-01T08:44:03;26.60;93.10
21306;DHT22;10812;51.838;5.838;2022-07-01T08:46:31;26.50;92.60
21306;DHT22;10812;51.838;5.838;2022-07-01T08:48:59;26.10;92.70
21306;DHT22;10812;51.838;5.838;2022-07-01T08:51:27;25.90;93.80
21306;DHT22;10812;51.838;5.838;2022-07-01T08:53:55;25.30;93.10
21306;DHT22;10812;51.838;5.838;2022-07-01T08:56:23;24.90;94.30
21306;DHT22;10812;51.838;5.838;2022-07-01T08:59:21;25.30;94.80
21306;DHT22;10812;51.838;5.838;2022-07-01T09:01:55;25.90;93.40
21306;DHT22;10812;51.838;5.838;2022-07-01T09:04:26;26.80;92.40
21306;DHT22;10812;51.838;5.838;2022-07-01T09:07:01;27.00;92.20
21306;DHT22;10812;51.838;5.838;2022-07-01T09:09:34;27.70;90.60
21306;DHT22;10812;51.838;5.838;2022-07-01T09:12:02;27.20;90.40
21306;DHT22;10812;51.838;5.838;2022-07-01T09:14:33;27.20;91.30
21306;DHT22;10812;51.838;5.838;2022-07-01T09:17:04;26.70;90.80
21306;DHT22;10812;51.838;5.838;2022-07-01T09:19:36;26.40;91.00
21306;DHT22;10812;51.838;5.838;2022-07-01T09:22:12;25.90;92.00
21306;DHT22;10812;51.838;5.838;2022-07-01T09:24:42;25.70;92.90
21306;DHT22;10812;51.838;5.838;2022-07-01T09:27:12;26.60;90.70
21306;DHT22;10812;51.838;5.838;2022-07-01T09:29:43;26.90;91.30
21306;DHT22;10812;51.838;5.838;2022-07-01T09:32:13;27.10;90.10
21306;DHT22;10812;51.838;5.838;2022-07-01T09:34:43;27.20;88.70
21306;DHT22;10812;51.838;5.838;2022-07-01T09:37:13;26.80;88.70
21306;DHT22;10812;51.838;5.838;2022-07-01T09:39:43;25.90;88.20
21306;DHT22;10812;51.838;5.838;2022-07-01T09:42:11;25.80;89.70
21306;DHT22;10812;51.838;5.838;2022-07-01T09:44:53;25.70;88.80
21306;DHT22;10812;51.838;5.838;2022-07-01T09:47:28;25.90;89.70
21306;DHT22;10812;51.838;5.838;2022-07-01T09:49:57;25.90;88.50
21306;DHT22;10812;51.838;5.838;2022-07-01T09:52:25;25.70;90.30
21306;DHT22;10812;51.838;5.838;2022-07-01T09:55:03;26.10;88.60
21306;DHT22;10812;51.838;5.838;2022-07-01T09:57:32;25.70;90.00
21306;DHT22;10812;51.838;5.838;2022-07-01T10:00:02;24.70;90.90
21306;DHT22;10812;51.838;5.838;2022-07-01T10:02:33;24.50;92.70
21306;DHT22;10812;51.838;5.838;2022-07-01T10:05:05;24.70;90.90
21306;DHT22;10812;51.838;5.838;2022-07-01T10:07:42;24.90;91.00
21306;DHT22;10812;51.838;5.838;2022-07-01T10:10:27;25.00;91.00
21306;DHT22;10812;51.838;5.838;2022-07-01T10:13:01;25.80;89.70
21306;DHT22;10812;51.838;5.838;2022-07-01T10:15:31;25.90;88.50
21306;DHT22;10812;51.838;5.838;2022-07-01T10:18:00;26.10;88.30
21306;DHT22;10812;51.838;5.838;2022-07-01T10:20:29;26.30;86.90
21306;DHT22;10812;51.838;5.838;2022-07-01T10:23:01;26.40;86.40
21306;DHT22;10812;51.838;5.838;2022-07-01T10:25:32;26.20;85.70
21306;DHT22;10812;51.838;5.838;2022-07-01T10:28:22;26.00;86.20
21306;DHT22;10812;51.838;5.838;2022-07-01T10:30:58;25.50;87.60
21306;DHT22;10812;51.838;5.838;2022-07-01T10:33:43;25.70;87.70
21306;DHT22;10812;51.838;5.838;2022-07-01T10:36:14;26.40;86.10
21306;DHT22;10812;51.838;5.838;2022-07-01T10:39:14;26.60;86.80
21306;DHT22;10812;51.838;5.838;2022-07-01T10:41:56;26.70;85.60
21306;DHT22;10812;51.838;5.838;2022-07-01T10:45:00;26.60;84.80
21306;DHT22;10812;51.838;5.838;2022-07-01T10:47:30;25.10;86.00
21306;DHT22;10812;51.838;5.838;2022-07-01T10:50:03;24.60;87.40
21306;DHT22;10812;51.838;5.838;2022-07-01T10:52:31;24.40;89.00
21306;DHT22;10812;51.838;5.838;2022-07-01T10:55:01;24.30;90.90
21306;DHT22;10812;51.838;5.838;2022-07-01T10:57:36;24.30;89.10
21306;DHT22;10812;51.838;5.838;2022-07-01T11:00:27;24.20;90.40
21306;DHT22;10812;51.838;5.838;2022-07-01T11:03:15;24.30;90.30
21306;DHT22;10812;51.838;5.838;2022-07-01T11:05:45;24.10;89.10
21306;DHT22;10812;51.838;5.838;2022-07-01T11:08:14;23.90;89.80
21306;DHT22;10812;51.838;5.838;2022-07-01T11:10:55;23.60;90.90
21306;DHT22;10812;51.838;5.838;2022-07-01T11:13:25;23.60;90.90
21306;DHT22;10812;51.838;5.838;2022-07-01T11:15:55;23.30;90.80
21306;DHT22;10812;51.838;5.838;2022-07-01T11:18:25;23.60;90.70
21306;DHT22;10812;51.838;5.838;2022-07-01T11:21:03;23.60;89.80
21306;DHT22;10812;51.838;5.838;2022-07-01T11:23:31;23.90;89.60
21306;DHT22;10812;51.838;5.838;2022-07-01T11:26:06;23.90;88.60
21306;DHT22;10812;51.838;5.838;2022-07-01T11:28:39;24.10;89.50
21306;DHT22;10812;51.838;5.838;2022-07-01T11:31:08;24.20;89.70
21306;DHT22;10812;51.838;5.838;2022-07-01T11:33:37;24.50;88.90
21306;DHT22;10812;51.838;5.838;2022-07-01T11:36:06;24.50;88.50
21306;DHT22;10812;51.838;5.838;2022-07-01T11:38:54;24.50;88.00
21306;DHT22;10812;51.838;5.838;2022-07-01T11:41:40;24.20;88.40
21306;DHT22;10812;51.838;5.838;2022-07-01T11:44:08;24.10;87.20
21306;DHT22;10812;51.838;5.838;2022-07-01T11:46:36;23.80;88.40
21306;DHT22;10812;51.838;5.838;2022-07-01T11:49:12;23.60;89.40
21306;DHT22;10812;51.838;5.838;2022-07-01T11:51:41;23.50;90.30
21306;DHT22;10812;51.838;5.838;2022-07-01T11:54:20;23.70;90.10
21306;DHT22;10812;51.838;5.838;2022-07-01T11:56:49;23.40;90.00
21306;DHT22;10812;51.838;5.838;2022-07-01T11:59:18;23.60;90.50
21306;DHT22;10812;51.838;5.838;2022-07-01T12:01:53;23.70;91.20
21306;DHT22;10812;51.838;5.838;2022-07-01T12:04:23;23.70;90.20
21306;DHT22;10812;51.838;5.838;2022-07-01T12:06:51;23.90;90.10
21306;DHT22;10812;51.838;5.838;2022-07-01T12:09:19;23.90;88.40
21306;DHT22;10812;51.838;5.838;2022-07-01T12:11:49;24.10;89.50
21306;DHT22;10812;51.838;5.838;2022-07-01T12:14:20;24.00;89.70
21306;DHT22;10812;51.838;5.838;2022-07-01T12:16:51;23.90;89.20
21306;DHT22;10812;51.838;5.838;2022-07-01T12:19:20;23.90;88.80
21306;DHT22;10812;51.838;5.838;2022-07-01T12:21:51;24.10;89.70
21306;DHT22;10812;51.838;5.838;2022-07-01T12:24:20;24.30;89.70
21306;DHT22;10812;51.838;5.838;2022-07-01T12:26:51;23.90;89.70
21306;DHT22;10812;51.838;5.838;2022-07-01T12:29:21;23.80;88.20
21306;DHT22;10812;51.838;5.838;2022-07-01T12:32:01;23.50;90.10
21306;DHT22;10812;51.838;5.838;2022-07-01T12:34:38;23.60;90.30
21306;DHT22;10812;51.838;5.838;2022-07-01T12:37:12;24.10;89.80
21306;DHT22;10812;51.838;5.838;2022-07-01T12:39:45;24.20;88.60
21306;DHT22;10812;51.838;5.838;2022-07-01T12:42:24;24.30;89.00
21306;DHT22;10812;51.838;5.838;2022-07-01T12:44:55;24.10;87.50
21306;DHT22;10812;51.838;5.838;2022-07-01T12:47:28;23.80;88.50
21306;DHT22;10812;51.838;5.838;2022-07-01T12:50:14;23.70;88.60
21306;DHT22;10812;51.838;5.838;2022-07-01T12:52:59;24.00;89.70
21306;DHT22;10812;51.838;5.838;2022-07-01T12:55:28;24.10;89.70
21306;DHT22;10812;51.838;5.838;2022-07-01T12:57:58;23.80;90.20
21306;DHT22;10812;51.838;5.838;2022-07-01T13:00:28;23.80;90.20
21306;DHT22;10812;51.838;5.838;2022-07-01T13:02:57;23.90;87.90
21306;DHT22;10812;51.838;5.838;2022-07-01T13:05:26;23.80;88.00
21306;DHT22;10812;51.838;5.838;2022-07-01T13:07:56;23.60;89.50
21306;DHT22;10812;51.838;5.838;2022-07-01T13:10:24;23.40;89.00
21306;DHT22;10812;51.838;5.838;2022-07-01T13:12:53;23.20;90.10
21306;DHT22;10812;51.838;5.838;2022-07-01T13:15:21;23.00;90.40
21306;DHT22;10812;51.838;5.838;2022-07-01T13:17:50;23.10;90.50
21306;DHT22;10812;51.838;5.838;2022-07-01T13:20:19;23.30;90.70
21306;DHT22;10812;51.838;5.838;2022-07-01T13:22:47;23.70;89.70
21306;DHT22;10812;51.838;5.838;2022-07-01T13:25:17;23.80;89.40
21306;DHT22;10812;51.838;5.838;2022-07-01T13:27:45;23.80;88.20
21306;DHT22;10812;51.838;5.838;2022-07-01T13:30:14;23.50;90.00
21306;DHT22;10812;51.838;5.838;2022-07-01T13:32:42;23.60;90.20
21306;DHT22;10812;51.838;5.838;2022-07-01T13:35:12;23.80;89.70
21306;DHT22;10812;51.838;5.838;2022-07-01T13:37:40;23.70;89.00
21306;DHT22;10812;51.838;5.838;2022-07-01T13:40:09;23.80;89.60
21306;DHT22;10812;51.838;5.838;2022-07-01T13:42:39;24.20;90.40
21306;DHT22;10812;51.838;5.838;2022-07-01T13:45:07;24.50;90.00
21306;DHT22;10812;51.838;5.838;2022-07-01T13:47:36;24.00;90.00
21306;DHT22;10812;51.838;5.838;2022-07-01T13:50:05;23.90;90.50
21306;DHT22;10812;51.838;5.838;2022-07-01T13:52:33;24.10;89.10
21306;DHT22;10812;51.838;5.838;2022-07-01T13:55:02;24.30;87.80
21306;DHT22;10812;51.838;5.838;2022-07-01T13:57:30;24.30;88.10
21306;DHT22;10812;51.838;5.838;2022-07-01T13:59:59;24.30;89.00
21306;DHT22;10812;51.838;5.838;2022-07-01T14:02:27;24.20;89.30
21306;DHT22;10812;51.838;5.838;2022-07-01T14:04:55;23.90;88.70
21306;DHT22;10812;51.838;5.838;2022-07-01T14:07:23;23.80;90.10
21306;DHT22;10812;51.838;5.838;2022-07-01T14:09:52;23.80;90.10
21306;DHT22;10812;51.838;5.838;2022-07-01T14:12:20;23.60;88.10
21306;DHT22;10812;51.838;5.838;2022-07-01T14:14:54;23.60;89.80
21306;DHT22;10812;51.838;5.838;2022-07-01T14:17:24;23.50;88.60
21306;DHT22;10812;51.838;5.838;2022-07-01T14:19:52;23.30;90.10
21306;DHT22;10812;51.838;5.838;2022-07-01T14:22:20;23.20;90.00
21306;DHT22;10812;51.838;5.838;2022-07-01T14:24:48;23.10;90.10
21306;DHT22;10812;51.838;5.838;2022-07-01T14:27:16;23.20;90.30
21306;DHT22;10812;51.838;5.838;2022-07-01T14:29:45;23.10;90.20
21306;DHT22;10812;51.838;5.838;2022-07-01T14:32:17;23.10;90.10
21306;DHT22;10812;51.838;5.838;2022-07-01T14:34:49;23.00;90.00
21306;DHT22;10812;51.838;5.838;2022-07-01T14:37:17;22.90;89.60
21306;DHT22;10812;51.838;5.838;2022-07-01T14:39:45;23.10;89.40
21306;DHT22;10812;51.838;5.838;2022-07-01T14:42:13;23.00;90.10
21306;DHT22;10812;51.838;5.838;2022-07-01T14:44:41;23.10;90.00
21306;DHT22;10812;51.838;5.838;2022-07-01T14:47:09;23.00;90.30
21306;DHT22;10812;51.838;5.838;2022-07-01T14:49:37;23.10;90.40
21306;DHT22;10812;51.838;5.838;2022-07-01T14:52:07;23.20;90.70
21306;DHT22;10812;51.838;5.838;2022-07-01T14:54:36;23.20;90.70
21306;DHT22;10812;51.838;5.838;2022-07-01T14:57:05;23.00;90.90
21306;DHT22;10812;51.838;5.838;2022-07-01T14:59:33;23.30;91.00
21306;DHT22;10812;51.838;5.838;2022-07-01T15:02:02;22.90;91.00
21306;DHT22;10812;51.838;5.838;2022-07-01T15:04:31;22.90;91.00
21306;DHT22;10812;51.838;5.838;2022-07-01T15:06:59;23.00;90.90
21306;DHT22;10812;51.838;5.838;2022-07-01T15:09:29;23.00;91.40
21306;DHT22;10812;51.838;5.838;2022-07-01T15:11:57;23.10;90.70
21306;DHT22;10812;51.838;5.838;2022-07-01T15:14:25;23.00;90.20
21306;DHT22;10812;51.838;5.838;2022-07-01T15:16:53;23.00;90.50
21306;DHT22;10812;51.838;5.838;2022-07-01T15:19:21;23.00;90.50
21306;DHT22;10812;51.838;5.838;2022-07-01T15:21:49;22.70;92.20
21306;DHT22;10812;51.838;5.838;2022-07-01T15:24:21;22.30;93.50
21306;DHT22;10812;51.838;5.838;2022-07-01T15:26:52;21.90;94.70
21306;DHT22;10812;51.838;5.838;2022-07-01T15:29:21;21.90;94.70
21306;DHT22;10812;51.838;5.838;2022-07-01T15:31:49;21.80;95.10
21306;DHT22;10812;51.838;5.838;2022-07-01T15:34:18;21.60;95.50
21306;DHT22;10812;51.838;5.838;2022-07-01T15:36:46;21.60;96.30
21306;DHT22;10812;51.838;5.838;2022-07-01T15:39:15;21.50;95.70
21306;DHT22;10812;51.838;5.838;2022-07-01T15:41:44;21.60;96.20
21306;DHT22;10812;51.838;5.838;2022-07-01T15:44:14;21.50;96.60
21306;DHT22;10812;51.838;5.838;2022-07-01T15:46:42;21.30;97.10
21306;DHT22;10812;51.838;5.838;2022-07-01T15:49:10;21.30;96.80
21306;DHT22;10812;51.838;5.838;2022-07-01T15:51:39;21.50;96.80
21306;DHT22;10812;51.838;5.838;2022-07-01T15:54:08;21.50;97.30
21306;DHT22;10812;51.838;5.838;2022-07-01T15:56:38;21.40;97.70
21306;DHT22;10812;51.838;5.838;2022-07-01T15:59:06;21.50;97.60
21306;DHT22;10812;51.838;5.838;2022-07-01T16:01:35;21.30;97.20
21306;DHT22;10812;51.838;5.838;2022-07-01T16:04:04;21.30;97.30
21306;DHT22;10812;51.838;5.838;2022-07-01T16:06:35;21.30;97.30
21306;DHT22;10812;51.838;5.838;2022-07-01T16:09:03;21.00;97.70
21306;DHT22;10812;51.838;5.838;2022-07-01T16:11:34;21.30;97.60
21306;DHT22;10812;51.838;5.838;2022-07-01T16:14:04;21.30;97.00
21306;DHT22;10812;51.838;5.838;2022-07-01T16:16:37;21.30;96.40